createdAt,value
2019-04-27T00:02:36.862Z,17.30
2019-04-27T00:05:41.002Z,17.40
2019-04-27T00:08:38.795Z,17.40
2019-04-27T00:11:13.790Z,17.50
2019-04-27T00:13:44.135Z,17.50
2019-04-27T00:16:46.864Z,17.50
2019-04-27T00:19:31.783Z,17.50
2019-04-27T00:22:24.788Z,17.50
2019-04-27T00:24:57.824Z,17.50
2019-04-27T00:27:27.928Z,17.50
2019-04-27T00:29:59.127Z,17.60
2019-04-27T00:32:29.576Z,17.60
2019-04-27T00:35:00.081Z,17.60
2019-04-27T00:37:53.061Z,17.70
2019-04-27T00:40:27.847Z,17.60
2019-04-27T00:42:58.435Z,17.70
2019-04-27T00:45:30.490Z,17.60
2019-04-27T00:48:01.086Z,17.60
2019-04-27T00:50:33.658Z,17.60
2019-04-27T00:53:03.915Z,17.60
2019-04-27T00:55:37.334Z,17.50
2019-04-27T00:58:30.444Z,17.40
2019-04-27T01:01:18.988Z,17.40
2019-04-27T01:04:14.439Z,17.30
2019-04-27T01:06:45.833Z,17.30
2019-04-27T01:09:18.485Z,17.30
2019-04-27T01:11:48.967Z,17.20
2019-04-27T01:14:23.078Z,17.10
2019-04-27T01:16:53.283Z,17.20
2019-04-27T01:19:23.423Z,17.20
2019-04-27T01:21:54.340Z,17.20
2019-04-27T01:24:23.999Z,17.10
2019-04-27T01:27:19.094Z,17.10
2019-04-27T01:29:50.109Z,17.10
2019-04-27T01:32:20.926Z,17.10
2019-04-27T01:34:51.486Z,17.10
2019-04-27T01:37:22.811Z,17.10
2019-04-27T01:39:53.666Z,17.00
2019-04-27T01:42:27.015Z,17.10
2019-04-27T01:44:59.490Z,17.10
2019-04-27T01:47:30.170Z,17.10
2019-04-27T01:50:00.232Z,17.20
2019-04-27T01:52:30.871Z,17.20
2019-04-27T01:55:01.509Z,17.20
2019-04-27T01:57:31.232Z,17.20
2019-04-27T02:00:03.027Z,17.30
2019-04-27T02:02:42.601Z,17.30
2019-04-27T02:05:35.352Z,17.30
2019-04-27T02:08:06.410Z,17.30
2019-04-27T02:10:39.411Z,17.30
2019-04-27T02:13:10.027Z,17.30
2019-04-27T02:15:40.699Z,17.20
2019-04-27T02:18:10.404Z,17.10
2019-04-27T02:20:41.076Z,17.20
2019-04-27T02:23:11.281Z,17.20
2019-04-27T02:25:42.353Z,17.30
2019-04-27T02:28:25.067Z,17.10
2019-04-27T02:31:14.178Z,17.10
2019-04-27T02:33:59.814Z,17.10
2019-04-27T02:36:30.518Z,17.10
2019-04-27T02:39:01.225Z,17.10
2019-04-27T02:41:31.708Z,17.00
2019-04-27T02:44:09.561Z,17.00
2019-04-27T02:46:40.216Z,17.00
2019-04-27T02:49:13.505Z,17.00
2019-04-27T02:51:55.814Z,16.90
2019-04-27T02:54:29.863Z,16.90
2019-04-27T02:57:00.893Z,16.90
2019-04-27T02:59:31.677Z,16.90
2019-04-27T03:02:06.833Z,16.90
2019-04-27T03:04:39.656Z,16.90
2019-04-27T03:07:07.911Z,16.90
2019-04-27T03:09:39.519Z,16.90
2019-04-27T03:12:10.217Z,16.90
2019-04-27T03:15:02.377Z,16.90
2019-04-27T03:17:50.924Z,16.80
2019-04-27T03:20:42.457Z,16.90
2019-04-27T03:23:14.483Z,16.80
2019-04-27T03:26:10.713Z,16.80
2019-04-27T03:28:44.673Z,16.80
2019-04-27T03:31:15.258Z,16.80
2019-04-27T03:33:54.931Z,16.90
2019-04-27T03:36:21.560Z,16.90
2019-04-27T03:38:51.631Z,16.90
2019-04-27T03:41:22.185Z,16.90
2019-04-27T03:43:53.776Z,17.00
2019-04-27T03:46:24.440Z,17.20
2019-04-27T03:48:55.523Z,17.20
2019-04-27T03:51:35.575Z,17.20
2019-04-27T03:54:24.946Z,17.30
2019-04-27T03:57:02.435Z,17.40
2019-04-27T03:59:53.956Z,17.40
2019-04-27T04:02:24.756Z,17.50
2019-04-27T04:04:54.772Z,17.70
2019-04-27T04:07:24.969Z,17.70
2019-04-27T04:09:54.949Z,17.80
2019-04-27T04:12:39.804Z,17.90
2019-04-27T04:15:14.403Z,18.00
2019-04-27T04:17:49.496Z,18.10
2019-04-27T04:20:20.354Z,18.10
2019-04-27T04:22:52.644Z,18.00
2019-04-27T04:25:23.280Z,18.10
2019-04-27T04:27:54.140Z,18.20
2019-04-27T04:30:30.267Z,18.20
2019-04-27T04:33:01.316Z,18.30
2019-04-27T04:35:33.356Z,18.40
2019-04-27T04:38:03.531Z,18.50
2019-04-27T04:40:42.531Z,18.60
2019-04-27T04:43:19.925Z,18.70
2019-04-27T04:46:12.774Z,18.70
2019-04-27T04:48:41.768Z,18.60
2019-04-27T04:51:11.347Z,18.60
2019-04-27T04:53:44.651Z,18.60
2019-04-27T04:56:18.802Z,18.80
2019-04-27T04:58:49.732Z,18.80
2019-04-27T05:01:20.629Z,18.60
2019-04-27T05:03:51.736Z,18.60
2019-04-27T05:06:25.443Z,18.60
2019-04-27T05:08:54.067Z,18.40
2019-04-27T05:11:24.084Z,18.30
2019-04-27T05:13:59.364Z,18.20
2019-04-27T05:16:32.615Z,18.30
2019-04-27T05:19:01.693Z,18.20
2019-04-27T05:21:33.620Z,18.10
2019-04-27T05:24:04.587Z,18.00
2019-04-27T05:26:35.434Z,18.10
2019-04-27T05:29:05.498Z,18.20
2019-04-27T05:31:35.928Z,18.00
2019-04-27T05:34:09.516Z,18.10
2019-04-27T05:36:41.690Z,18.20
2019-04-27T05:39:13.265Z,18.20
2019-04-27T05:41:49.659Z,18.30
2019-04-27T05:44:48.998Z,18.10
2019-04-27T05:47:28.920Z,18.00
2019-04-27T05:50:21.840Z,17.90
2019-04-27T05:52:50.177Z,18.00
2019-04-27T05:55:20.624Z,17.90
2019-04-27T05:57:50.783Z,17.90
2019-04-27T06:00:21.838Z,17.60
2019-04-27T06:02:54.990Z,17.50
2019-04-27T06:05:25.122Z,17.50
2019-04-27T06:07:58.943Z,17.50
2019-04-27T06:10:30.375Z,17.50
2019-04-27T06:13:00.477Z,17.70
2019-04-27T06:15:30.450Z,17.80
2019-04-27T06:18:00.818Z,17.70
2019-04-27T06:20:31.145Z,17.70
2019-04-27T06:23:02.277Z,17.80
2019-04-27T06:25:33.804Z,17.90
2019-04-27T06:28:03.822Z,18.10
2019-04-27T06:30:33.851Z,17.90
2019-04-27T06:33:04.048Z,17.80
2019-04-27T06:35:37.203Z,17.90
2019-04-27T06:38:07.321Z,18.00
2019-04-27T06:40:39.153Z,17.90
2019-04-27T06:43:09.161Z,17.70
2019-04-27T06:45:39.840Z,17.70
2019-04-27T06:48:11.527Z,17.70
2019-04-27T06:50:41.511Z,17.60
2019-04-27T06:53:12.164Z,17.80
2019-04-27T06:55:42.598Z,18.00
2019-04-27T06:58:13.132Z,18.30
2019-04-27T07:00:43.442Z,18.50
2019-04-27T07:03:14.567Z,18.70
2019-04-27T07:05:45.336Z,18.80
2019-04-27T07:08:16.235Z,18.70
2019-04-27T07:10:45.913Z,18.60
2019-04-27T07:13:16.242Z,18.50
2019-04-27T07:15:48.506Z,18.40
2019-04-27T07:18:18.646Z,18.40
2019-04-27T07:20:48.919Z,18.40
2019-04-27T07:23:20.919Z,18.60
2019-04-27T07:25:51.692Z,18.70
2019-04-27T07:28:21.631Z,18.80
2019-04-27T07:30:53.185Z,18.70
2019-04-27T07:33:23.617Z,18.70
2019-04-27T07:35:54.000Z,18.90
2019-04-27T07:38:24.101Z,18.80
2019-04-27T07:40:55.093Z,18.50
2019-04-27T07:43:41.225Z,18.40
2019-04-27T07:46:11.145Z,18.40
2019-04-27T07:48:41.831Z,18.30
2019-04-27T07:51:12.129Z,18.30
2019-04-27T07:53:43.090Z,18.30
2019-04-27T07:56:13.644Z,18.50
2019-04-27T07:58:44.798Z,18.50
2019-04-27T08:01:14.860Z,18.20
2019-04-27T08:03:45.113Z,18.00
2019-04-27T08:06:15.139Z,18.00
2019-04-27T08:08:46.326Z,18.20
2019-04-27T08:11:16.712Z,18.40
2019-04-27T08:13:49.980Z,18.40
2019-04-27T08:16:21.976Z,18.20
2019-04-27T08:18:55.402Z,18.30
2019-04-27T08:21:28.822Z,18.70
2019-04-27T08:23:59.764Z,18.70
2019-04-27T08:26:47.322Z,18.60
2019-04-27T08:29:53.251Z,18.80
2019-04-27T08:32:31.010Z,18.90
2019-04-27T08:35:01.303Z,18.70
2019-04-27T08:37:34.071Z,18.50
2019-04-27T08:40:04.434Z,18.60
2019-04-27T08:42:38.980Z,18.80
2019-04-27T08:45:09.387Z,18.80
2019-04-27T08:47:41.764Z,18.60
2019-04-27T08:50:16.273Z,18.70
2019-04-27T08:52:46.481Z,18.90
2019-04-27T08:55:19.541Z,18.70
2019-04-27T08:57:49.377Z,18.50
2019-04-27T09:00:19.844Z,18.40
2019-04-27T09:02:50.239Z,18.50
2019-04-27T09:05:30.261Z,18.50
2019-04-27T09:08:24.879Z,18.50
2019-04-27T09:11:16.708Z,18.90
2019-04-27T09:14:04.274Z,19.00
2019-04-27T09:16:59.518Z,19.30
2019-04-27T09:19:33.384Z,19.50
2019-04-27T09:22:15.245Z,19.50
2019-04-27T09:24:40.066Z,18.90
2019-04-27T09:27:10.236Z,18.50
2019-04-27T09:29:40.281Z,18.40
2019-04-27T09:32:11.155Z,18.50
2019-04-27T09:34:41.245Z,18.50
2019-04-27T09:37:12.334Z,18.20
2019-04-27T09:39:43.578Z,18.20
2019-04-27T09:42:13.726Z,18.30
2019-04-27T09:44:47.682Z,18.30
2019-04-27T09:47:18.522Z,18.50
2019-04-27T09:49:48.936Z,18.50
2019-04-27T09:52:26.301Z,18.60
2019-04-27T09:54:52.312Z,18.50
2019-04-27T09:57:25.892Z,18.70
2019-04-27T09:59:57.701Z,18.70
2019-04-27T10:02:28.592Z,18.90
2019-04-27T10:05:00.505Z,19.00
2019-04-27T10:07:30.319Z,18.90
2019-04-27T10:10:01.991Z,18.70
2019-04-27T10:12:34.233Z,18.80
2019-04-27T10:15:06.365Z,18.60
2019-04-27T10:17:36.455Z,18.30
2019-04-27T10:20:07.466Z,18.40
2019-04-27T10:22:41.115Z,18.60
2019-04-27T10:25:23.082Z,18.60
2019-04-27T10:28:02.178Z,18.70
2019-04-27T10:30:32.502Z,18.70
2019-04-27T10:33:02.881Z,18.30
2019-04-27T10:35:33.434Z,18.20
2019-04-27T10:38:04.034Z,18.10
2019-04-27T10:40:33.645Z,18.10
2019-04-27T10:43:06.361Z,18.20
2019-04-27T10:45:37.866Z,18.10
2019-04-27T10:48:09.460Z,18.20
2019-04-27T10:50:40.607Z,18.40
2019-04-27T10:53:10.998Z,18.60
2019-04-27T10:55:41.415Z,18.70
2019-04-27T10:58:12.048Z,19.00
2019-04-27T11:00:48.205Z,18.90
2019-04-27T11:03:21.521Z,18.90
2019-04-27T11:06:07.465Z,19.10
2019-04-27T11:08:37.273Z,19.20
2019-04-27T11:11:07.359Z,19.10
2019-04-27T11:13:39.872Z,18.70
2019-04-27T11:16:10.675Z,18.50
2019-04-27T11:18:41.851Z,18.30
2019-04-27T11:21:11.432Z,18.60
2019-04-27T11:23:41.652Z,18.50
2019-04-27T11:26:16.034Z,18.10
2019-04-27T11:28:46.566Z,17.90
2019-04-27T11:31:17.288Z,17.50
2019-04-27T11:33:47.559Z,17.50
2019-04-27T11:36:35.645Z,17.60
2019-04-27T11:39:17.506Z,17.60
2019-04-27T11:41:46.563Z,17.40
2019-04-27T11:44:17.096Z,17.30
2019-04-27T11:46:47.883Z,17.10
2019-04-27T11:49:17.570Z,17.00
2019-04-27T11:51:47.147Z,17.10
2019-04-27T11:54:17.086Z,17.40
2019-04-27T11:56:47.464Z,17.70
2019-04-27T11:59:17.666Z,17.40
2019-04-27T12:01:48.522Z,17.60
2019-04-27T12:04:18.416Z,17.50
2019-04-27T12:06:48.558Z,17.30
2019-04-27T12:09:18.104Z,17.20
2019-04-27T12:11:48.303Z,17.20
2019-04-27T12:14:19.371Z,17.40
2019-04-27T12:16:49.495Z,17.30
2019-04-27T12:19:19.995Z,17.10
2019-04-27T12:21:51.861Z,17.10
2019-04-27T12:24:22.204Z,17.00
2019-04-27T12:27:10.448Z,17.10
2019-04-27T12:29:58.998Z,17.20
2019-04-27T12:32:29.328Z,17.30
2019-04-27T12:35:00.792Z,17.20
2019-04-27T12:37:30.893Z,17.10
2019-04-27T12:40:03.143Z,17.20
2019-04-27T12:42:33.503Z,17.40
2019-04-27T12:45:04.162Z,17.30
2019-04-27T12:47:36.465Z,17.00
2019-04-27T12:50:07.652Z,17.00
2019-04-27T12:52:38.855Z,16.90
2019-04-27T12:55:33.615Z,16.90
2019-04-27T12:58:12.828Z,16.80
2019-04-27T13:00:45.998Z,16.80
2019-04-27T13:03:16.650Z,16.90
2019-04-27T13:05:48.262Z,17.00
2019-04-27T13:08:18.501Z,16.90
2019-04-27T13:10:49.524Z,16.80
2019-04-27T13:13:19.751Z,16.70
2019-04-27T13:15:49.419Z,16.60
2019-04-27T13:18:19.540Z,16.50
2019-04-27T13:20:50.113Z,16.60
2019-04-27T13:23:21.279Z,16.60
2019-04-27T13:25:51.386Z,16.60
2019-04-27T13:28:22.044Z,16.40
2019-04-27T13:30:59.284Z,16.30
2019-04-27T13:33:29.731Z,16.30
2019-04-27T13:36:00.210Z,16.30
2019-04-27T13:38:31.405Z,16.30
2019-04-27T13:41:08.066Z,16.40
2019-04-27T13:44:31.206Z,16.20
2019-04-27T13:47:22.835Z,16.10
2019-04-27T13:50:12.226Z,15.90
2019-04-27T13:52:41.903Z,15.80
2019-04-27T13:55:11.931Z,15.90
2019-04-27T13:57:50.103Z,15.70
2019-04-27T14:00:15.179Z,15.70
2019-04-27T14:02:45.537Z,15.60
2019-04-27T14:05:16.518Z,15.60
2019-04-27T14:07:46.198Z,15.50
2019-04-27T14:10:17.974Z,15.50
2019-04-27T14:12:49.461Z,15.50
2019-04-27T14:15:19.578Z,15.30
2019-04-27T14:17:51.511Z,15.10
2019-04-27T14:20:21.474Z,15.00
2019-04-27T14:22:53.107Z,15.00
2019-04-27T14:25:23.447Z,14.90
2019-04-27T14:27:54.551Z,14.80
2019-04-27T14:30:24.123Z,14.70
2019-04-27T14:32:57.935Z,14.60
2019-04-27T14:35:29.033Z,14.50
2019-04-27T14:37:59.267Z,14.50
2019-04-27T14:40:29.247Z,14.50
2019-04-27T14:42:59.899Z,14.50
2019-04-27T14:45:29.795Z,14.60
2019-04-27T14:47:59.658Z,14.70
2019-04-27T14:50:29.288Z,14.50
2019-04-27T14:52:59.604Z,14.70
2019-04-27T14:55:30.180Z,14.70
2019-04-27T14:58:00.620Z,14.70
2019-04-27T15:00:32.106Z,14.60
2019-04-27T15:03:20.769Z,14.60
2019-04-27T15:05:53.839Z,14.50
2019-04-27T15:08:25.161Z,14.50
2019-04-27T15:10:55.604Z,14.50
2019-04-27T15:13:27.985Z,14.50
2019-04-27T15:15:58.077Z,14.60
2019-04-27T15:18:34.608Z,14.70
2019-04-27T15:21:03.757Z,14.80
2019-04-27T15:23:33.892Z,14.80
2019-04-27T15:26:04.287Z,14.80
2019-04-27T15:28:39.004Z,14.70
2019-04-27T15:31:38.746Z,14.70
2019-04-27T15:34:27.539Z,14.70
2019-04-27T15:37:14.718Z,14.50
2019-04-27T15:40:12.449Z,14.40
2019-04-27T15:42:52.153Z,14.30
2019-04-27T15:45:24.315Z,14.40
2019-04-27T15:47:54.795Z,14.40
2019-04-27T15:50:30.293Z,14.50
2019-04-27T15:52:56.635Z,14.40
2019-04-27T15:55:34.689Z,14.40
2019-04-27T15:57:59.084Z,14.40
2019-04-27T16:00:29.286Z,14.40
2019-04-27T16:03:00.765Z,14.40
2019-04-27T16:05:32.681Z,14.30
2019-04-27T16:08:05.997Z,14.30
2019-04-27T16:10:37.324Z,14.30
2019-04-27T16:13:10.018Z,14.40
2019-04-27T16:15:38.673Z,14.40
2019-04-27T16:18:08.876Z,14.40
2019-04-27T16:20:40.320Z,14.30
2019-04-27T16:23:12.703Z,14.20
2019-04-27T16:25:48.505Z,14.20
2019-04-27T16:28:15.263Z,14.10
2019-04-27T16:30:49.638Z,14.10
2019-04-27T16:33:20.226Z,14.10
2019-04-27T16:35:53.210Z,14.20
2019-04-27T16:38:42.272Z,13.90
2019-04-27T16:41:12.587Z,13.70
2019-04-27T16:43:45.733Z,13.60
2019-04-27T16:46:16.265Z,13.70
2019-04-27T16:48:46.167Z,13.70
2019-04-27T16:51:18.539Z,13.80
2019-04-27T16:53:49.832Z,13.80
2019-04-27T16:58:56.468Z,13.80
2019-04-27T17:01:29.991Z,13.80
2019-04-27T17:04:00.364Z,13.70
2019-04-27T17:06:40.745Z,13.70
2019-04-27T17:09:11.376Z,13.70
2019-04-27T17:11:43.618Z,13.60
2019-04-27T17:12:41.121Z,13.70
2019-04-27T17:14:28.892Z,13.50
2019-04-27T17:17:17.806Z,13.60
2019-04-27T17:20:02.966Z,13.60
2019-04-27T17:22:33.481Z,13.60
2019-04-27T17:25:03.329Z,13.60
2019-04-27T17:27:39.572Z,13.60
2019-04-27T17:30:11.176Z,13.60
2019-04-27T17:33:11.723Z,13.60
2019-04-27T17:35:42.687Z,13.60
2019-04-27T17:38:15.879Z,13.60
2019-04-27T17:40:48.360Z,13.80
2019-04-27T17:43:18.747Z,13.60
2019-04-27T17:45:49.301Z,13.70
2019-04-27T17:48:20.076Z,13.70
2019-04-27T17:50:49.973Z,13.70
2019-04-27T17:53:20.719Z,13.70
2019-04-27T17:55:50.290Z,13.70
2019-04-27T17:58:21.089Z,13.80
2019-04-27T18:00:51.862Z,13.80
2019-04-27T18:03:25.169Z,13.80
2019-04-27T18:05:55.162Z,13.80
2019-04-27T18:08:25.718Z,13.80
2019-04-27T18:11:00.605Z,13.90
2019-04-27T18:13:28.895Z,13.80
2019-04-27T18:15:59.031Z,13.70
2019-04-27T18:18:50.193Z,13.70
2019-04-27T18:21:24.811Z,13.80
2019-04-27T18:23:59.219Z,13.60
2019-04-27T18:27:00.488Z,13.70
2019-04-27T18:29:30.650Z,13.80
2019-04-27T18:31:58.992Z,13.80
2019-04-27T18:34:30.627Z,13.60
2019-04-27T18:37:04.302Z,13.70
2019-04-27T18:39:33.880Z,13.70
2019-04-27T18:42:04.137Z,13.60
2019-04-27T18:44:33.812Z,13.70
2019-04-27T18:47:03.466Z,13.60
2019-04-27T18:49:54.457Z,13.60
2019-04-27T18:52:47.483Z,13.60
2019-04-27T18:55:18.519Z,13.60
2019-04-27T18:57:51.023Z,13.60
2019-04-27T19:00:22.399Z,13.70
2019-04-27T19:02:52.512Z,13.70
2019-04-27T19:05:37.270Z,13.50
2019-04-27T19:07:57.813Z,13.60
2019-04-27T19:10:28.221Z,13.60
2019-04-27T19:12:58.589Z,13.50
2019-04-27T19:15:30.171Z,13.60
2019-04-27T19:18:00.716Z,13.50
2019-04-27T19:20:32.481Z,13.50
2019-04-27T19:23:02.480Z,13.50
2019-04-27T19:25:50.185Z,13.40
2019-04-27T19:28:48.242Z,13.40
2019-04-27T19:31:26.380Z,13.40
2019-04-27T19:33:57.542Z,13.30
2019-04-27T19:36:27.924Z,13.20
2019-04-27T19:39:01.330Z,13.30
2019-04-27T19:41:34.770Z,13.40
2019-04-27T19:44:05.044Z,13.30
2019-04-27T19:46:36.673Z,13.40
2019-04-27T19:49:08.654Z,13.30
2019-04-27T19:51:39.242Z,13.30
2019-04-27T19:54:10.550Z,13.30
2019-04-27T19:56:40.361Z,13.30
2019-04-27T19:59:19.249Z,13.30
2019-04-27T20:01:50.588Z,13.40
2019-04-27T20:04:32.142Z,13.50
2019-04-27T20:07:11.965Z,13.50
2019-04-27T20:09:54.347Z,13.50
2019-04-27T20:12:26.075Z,13.50
2019-04-27T20:14:57.213Z,13.50
2019-04-27T20:17:31.872Z,13.50
2019-04-27T20:20:02.207Z,13.40
2019-04-27T20:22:32.058Z,13.40
2019-04-27T20:25:02.510Z,13.40
2019-04-27T20:27:45.169Z,13.50
2019-04-27T20:30:05.619Z,13.50
2019-04-27T20:32:35.062Z,13.50
2019-04-27T20:35:05.529Z,13.40
2019-04-27T20:37:35.502Z,13.50
2019-04-27T20:40:06.957Z,13.50
2019-04-27T20:42:38.040Z,13.60
2019-04-27T20:45:09.707Z,13.50
2019-04-27T20:47:39.666Z,13.50
2019-04-27T20:50:10.926Z,13.50
2019-04-27T20:52:54.371Z,13.50
2019-04-27T20:55:25.562Z,13.60
2019-04-27T20:58:01.321Z,13.60
2019-04-27T21:00:28.930Z,13.60
2019-04-27T21:03:17.801Z,13.60
2019-04-27T21:05:57.352Z,13.80
2019-04-27T21:08:27.290Z,13.60
2019-04-27T21:10:58.901Z,13.60
2019-04-27T21:13:29.037Z,13.60
2019-04-27T21:16:02.258Z,13.50
2019-04-27T21:18:31.967Z,13.50
2019-04-27T21:21:01.882Z,13.60
2019-04-27T21:23:32.171Z,13.50
2019-04-27T21:26:02.877Z,13.40
2019-04-27T21:28:34.321Z,13.40
2019-04-27T21:31:05.367Z,13.40
2019-04-27T21:33:35.594Z,13.30
2019-04-27T21:36:05.192Z,13.40
2019-04-27T21:38:35.659Z,13.40
2019-04-27T21:41:05.842Z,13.40
2019-04-27T21:43:35.688Z,13.50
2019-04-27T21:46:05.300Z,13.40
2019-04-27T21:48:36.599Z,13.40
2019-04-27T21:51:06.530Z,13.40
2019-04-27T21:53:55.642Z,13.40
2019-04-27T21:56:27.211Z,13.20
2019-04-27T21:58:57.985Z,13.30
2019-04-27T22:01:31.882Z,13.30
2019-04-27T22:04:03.681Z,13.30
2019-04-27T22:06:35.100Z,13.40
2019-04-27T22:09:08.608Z,13.40
2019-04-27T22:11:42.310Z,13.30
2019-04-27T22:14:12.295Z,13.40
2019-04-27T22:16:43.378Z,13.30
2019-04-27T22:19:14.417Z,13.20
2019-04-27T22:21:44.112Z,13.20
2019-04-27T22:24:27.905Z,13.30
2019-04-27T22:26:57.983Z,13.10
2019-04-27T22:29:29.078Z,13.10
2019-04-27T22:31:58.586Z,13.20
2019-04-27T22:34:31.099Z,13.20
2019-04-27T22:37:02.519Z,13.10
2019-04-27T22:39:48.396Z,13.10
2019-04-27T22:42:46.407Z,13.00
2019-04-27T22:45:22.870Z,13.10
2019-04-27T22:47:53.798Z,13.00
2019-04-27T22:50:25.915Z,12.90
2019-04-27T22:52:56.402Z,12.80
2019-04-27T22:55:27.652Z,12.80
2019-04-27T22:58:16.611Z,12.80
2019-04-27T23:01:02.617Z,12.80
2019-04-27T23:03:35.854Z,12.80
2019-04-27T23:06:05.940Z,12.70
2019-04-27T23:08:35.887Z,12.70
2019-04-27T23:11:06.634Z,12.70
2019-04-27T23:13:38.635Z,12.70
2019-04-27T23:16:11.560Z,12.80
2019-04-27T23:18:41.519Z,12.80
2019-04-27T23:21:13.552Z,12.70
2019-04-27T23:23:43.910Z,12.70
2019-04-27T23:26:14.747Z,12.50
2019-04-27T23:28:44.724Z,12.50
2019-04-27T23:31:21.166Z,12.50
2019-04-27T23:33:56.268Z,12.50
2019-04-27T23:36:26.824Z,12.50
2019-04-27T23:38:57.862Z,12.50
2019-04-27T23:41:27.940Z,12.60
2019-04-27T23:43:58.202Z,12.50
2019-04-27T23:46:30.248Z,12.40
2019-04-27T23:49:01.531Z,12.40
2019-04-27T23:51:55.182Z,12.40
2019-04-27T23:54:26.055Z,12.40
2019-04-27T23:56:56.272Z,12.30
2019-04-27T23:59:26.671Z,12.40
